createdAt,value
2023-02-21T00:02:35.916Z,81.16
2023-02-21T00:05:21.867Z,81.33
2023-02-21T00:08:06.787Z,81.12
2023-02-21T00:10:51.579Z,81.29
2023-02-21T00:13:36.582Z,81.26
2023-02-21T00:16:21.643Z,81.46
2023-02-21T00:19:06.747Z,81.28
2023-02-21T00:21:51.627Z,81.35
2023-02-21T00:24:37.570Z,81.32
2023-02-21T00:27:23.272Z,81.39
2023-02-21T00:30:09.773Z,81.23
2023-02-21T00:32:55.086Z,81.35
2023-02-21T00:35:40.226Z,81.49
2023-02-21T00:38:26.568Z,81.27
2023-02-21T00:41:12.241Z,81.43
2023-02-21T00:43:58.091Z,81.36
2023-02-21T00:46:43.315Z,81.48
2023-02-21T00:49:28.144Z,81.42
2023-02-21T00:52:13.542Z,81.54
2023-02-21T00:54:58.401Z,81.54
2023-02-21T00:57:43.497Z,81.44
2023-02-21T01:00:35.579Z,81.44
2023-02-21T01:03:21.037Z,81.41
2023-02-21T01:06:06.090Z,81.68
2023-02-21T01:08:51.177Z,81.57
2023-02-21T01:11:38.369Z,81.69
2023-02-21T01:14:26.840Z,81.74
2023-02-21T01:17:13.814Z,81.81
2023-02-21T01:20:00.959Z,81.86
2023-02-21T01:22:47.233Z,81.50
2023-02-21T01:25:33.317Z,81.59
2023-02-21T01:28:18.471Z,81.61
2023-02-21T01:31:03.601Z,81.80
2023-02-21T01:33:54.007Z,81.80
2023-02-21T01:36:39.117Z,81.97
2023-02-21T01:39:24.339Z,81.66
2023-02-21T01:42:11.117Z,81.93
2023-02-21T01:45:01.640Z,81.74
2023-02-21T01:47:47.754Z,81.74
2023-02-21T01:50:45.448Z,81.49
2023-02-21T01:53:39.869Z,81.85
2023-02-21T01:56:25.494Z,81.73
2023-02-21T01:59:14.176Z,81.73
2023-02-21T02:01:59.326Z,81.79
2023-02-21T02:04:44.476Z,81.81
2023-02-21T02:07:29.698Z,81.72
2023-02-21T02:10:15.078Z,81.68
2023-02-21T02:13:18.504Z,81.46
2023-02-21T02:16:24.643Z,81.45
2023-02-21T02:19:33.788Z,81.23
2023-02-21T02:22:32.157Z,81.66
2023-02-21T02:25:10.852Z,81.66
2023-02-21T02:28:09.826Z,81.59
2023-02-21T02:30:39.442Z,81.53
2023-02-21T02:33:34.959Z,81.80
2023-02-21T02:36:15.622Z,81.53
2023-02-21T02:38:59.913Z,81.63
2023-02-21T02:41:44.469Z,81.68
2023-02-21T02:44:19.666Z,81.51
2023-02-21T02:46:48.903Z,81.62
2023-02-21T02:49:25.202Z,81.35
2023-02-21T02:51:52.420Z,81.46
2023-02-21T02:54:21.784Z,81.49
2023-02-21T02:56:48.530Z,81.62
2023-02-21T02:59:22.586Z,81.55
2023-02-21T03:01:49.270Z,81.46
2023-02-21T03:04:38.344Z,81.54
2023-02-21T03:07:30.014Z,81.47
2023-02-21T03:10:35.192Z,81.41
2023-02-21T03:13:28.857Z,81.73
2023-02-21T03:16:15.309Z,81.59
2023-02-21T03:18:47.990Z,81.76
2023-02-21T03:21:29.893Z,81.40
2023-02-21T03:24:01.684Z,81.64
2023-02-21T03:26:32.318Z,81.69
2023-02-21T03:29:12.618Z,81.69
2023-02-21T03:31:46.457Z,81.42
2023-02-21T03:34:13.238Z,81.45
2023-02-21T03:36:40.381Z,81.68
2023-02-21T03:39:07.969Z,81.94
2023-02-21T03:41:34.777Z,81.28
2023-02-21T03:44:01.250Z,81.55
2023-02-21T03:46:27.731Z,81.59
2023-02-21T03:48:54.155Z,81.48
2023-02-21T03:51:26.040Z,81.50
2023-02-21T03:53:53.560Z,81.52
2023-02-21T03:56:28.075Z,81.29
2023-02-21T03:59:12.943Z,81.46
2023-02-21T04:01:39.532Z,81.25
2023-02-21T04:04:06.054Z,81.43
2023-02-21T04:06:32.503Z,81.29
2023-02-21T04:08:59.700Z,81.25
2023-02-21T04:11:27.185Z,81.52
2023-02-21T04:13:53.964Z,81.18
2023-02-21T04:16:20.699Z,81.17
2023-02-21T04:18:49.302Z,81.35
2023-02-21T04:21:18.656Z,81.27
2023-02-21T04:23:45.674Z,81.42
2023-02-21T04:26:12.166Z,81.24
2023-02-21T04:28:44.789Z,81.36
2023-02-21T04:31:11.356Z,81.49
2023-02-21T04:33:37.786Z,81.51
2023-02-21T04:36:05.465Z,81.42
2023-02-21T04:38:38.017Z,81.45
2023-02-21T04:41:05.046Z,81.53
2023-02-21T04:43:31.760Z,81.52
2023-02-21T04:45:58.306Z,81.49
2023-02-21T04:48:25.357Z,81.26
2023-02-21T04:50:51.819Z,81.55
2023-02-21T04:53:18.355Z,81.42
2023-02-21T04:55:44.816Z,81.25
2023-02-21T04:58:11.232Z,81.31
2023-02-21T05:00:37.649Z,81.37
2023-02-21T05:03:04.083Z,81.57
2023-02-21T05:05:30.580Z,81.33
2023-02-21T05:07:57.020Z,81.45
2023-02-21T05:10:27.023Z,81.67
2023-02-21T05:12:57.484Z,81.70
2023-02-21T05:15:24.031Z,81.42
2023-02-21T05:17:50.473Z,81.35
2023-02-21T05:20:17.092Z,81.37
2023-02-21T05:22:43.508Z,81.51
2023-02-21T05:25:22.267Z,81.38
2023-02-21T05:27:49.959Z,81.37
2023-02-21T05:30:18.702Z,81.41
2023-02-21T05:32:45.350Z,81.37
2023-02-21T05:35:13.835Z,81.36
2023-02-21T05:37:40.307Z,81.50
2023-02-21T05:40:07.642Z,81.23
2023-02-21T05:42:34.259Z,81.24
2023-02-21T05:45:02.306Z,81.16
2023-02-21T05:47:28.780Z,81.37
2023-02-21T05:49:55.378Z,81.20
2023-02-21T05:52:21.849Z,81.27
2023-02-21T05:54:48.298Z,81.25
2023-02-21T05:57:14.760Z,81.26
2023-02-21T05:59:41.236Z,81.30
2023-02-21T06:02:07.746Z,81.24
2023-02-21T06:04:34.209Z,81.19
2023-02-21T06:07:00.788Z,81.19
2023-02-21T06:09:27.296Z,81.02
2023-02-21T06:11:56.699Z,81.21
2023-02-21T06:14:24.060Z,81.21
2023-02-21T06:16:50.492Z,81.27
2023-02-21T06:19:18.774Z,81.27
2023-02-21T06:21:46.248Z,81.35
2023-02-21T06:24:13.066Z,81.19
2023-02-21T06:26:41.153Z,81.06
2023-02-21T06:29:08.020Z,81.07
2023-02-21T06:31:36.212Z,81.04
2023-02-21T06:34:03.067Z,81.14
2023-02-21T06:36:29.929Z,81.02
2023-02-21T06:38:57.411Z,80.94
2023-02-21T06:41:29.808Z,80.96
2023-02-21T06:43:58.343Z,81.09
2023-02-21T06:46:28.235Z,81.13
2023-02-21T06:48:55.023Z,81.12
2023-02-21T06:51:28.969Z,81.23
2023-02-21T06:53:56.333Z,80.98
2023-02-21T06:56:22.758Z,81.15
2023-02-21T06:58:49.191Z,80.92
2023-02-21T07:01:16.276Z,81.08
2023-02-21T07:03:44.294Z,81.05
2023-02-21T07:06:11.123Z,80.83
2023-02-21T07:08:37.966Z,81.09
2023-02-21T07:11:05.762Z,80.82
2023-02-21T07:13:32.456Z,81.04
2023-02-21T07:15:59.118Z,80.84
2023-02-21T07:18:25.638Z,80.84
2023-02-21T07:20:52.089Z,81.09
2023-02-21T07:23:18.566Z,80.97
2023-02-21T07:25:45.004Z,80.87
2023-02-21T07:28:12.263Z,80.79
2023-02-21T07:30:38.782Z,80.80
2023-02-21T07:33:05.339Z,80.88
2023-02-21T07:35:31.795Z,80.77
2023-02-21T07:37:58.237Z,80.95
2023-02-21T07:40:24.701Z,81.12
2023-02-21T07:42:51.193Z,80.96
2023-02-21T07:45:17.723Z,80.99
2023-02-21T07:47:47.874Z,80.89
2023-02-21T07:50:15.895Z,80.94
2023-02-21T07:52:42.353Z,80.94
2023-02-21T07:55:08.882Z,80.86
2023-02-21T07:57:35.765Z,80.93
2023-02-21T08:00:02.685Z,80.99
2023-02-21T08:02:39.450Z,81.04
2023-02-21T08:05:07.284Z,81.00
2023-02-21T08:07:33.868Z,81.10
2023-02-21T08:10:00.332Z,81.27
2023-02-21T08:12:26.753Z,81.37
2023-02-21T08:14:53.251Z,81.34
2023-02-21T08:17:19.674Z,81.25
2023-02-21T08:19:46.136Z,81.14
2023-02-21T08:22:12.667Z,81.26
2023-02-21T08:24:39.149Z,81.29
2023-02-21T08:27:05.921Z,81.33
2023-02-21T08:29:32.397Z,81.32
2023-02-21T08:31:58.907Z,81.34
2023-02-21T08:34:25.446Z,81.08
2023-02-21T08:36:51.914Z,81.28
2023-02-21T08:39:18.365Z,81.55
2023-02-21T08:41:48.584Z,81.19
2023-02-21T08:44:17.228Z,81.27
2023-02-21T08:46:44.626Z,81.25
2023-02-21T08:49:11.360Z,81.30
2023-02-21T08:51:38.282Z,81.49
2023-02-21T08:54:04.807Z,81.27
2023-02-21T08:56:31.973Z,81.28
2023-02-21T08:58:58.585Z,81.27
2023-02-21T09:01:30.541Z,81.26
2023-02-21T09:03:57.025Z,81.23
2023-02-21T09:06:23.561Z,81.29
2023-02-21T09:08:50.000Z,81.33
2023-02-21T09:11:16.670Z,81.30
2023-02-21T09:13:43.393Z,81.37
2023-02-21T09:16:10.003Z,81.26
2023-02-21T09:18:36.450Z,81.33
2023-02-21T09:21:03.061Z,81.45
2023-02-21T09:23:30.613Z,81.33
2023-02-21T09:25:58.434Z,81.39
2023-02-21T09:28:24.995Z,81.50
2023-02-21T09:30:51.553Z,81.46
2023-02-21T09:33:18.497Z,81.50
2023-02-21T09:35:44.864Z,81.46
2023-02-21T09:38:11.350Z,81.54
2023-02-21T09:40:45.574Z,81.37
2023-02-21T09:43:16.283Z,81.43
2023-02-21T09:45:44.621Z,81.39
2023-02-21T09:48:19.078Z,81.44
2023-02-21T09:50:51.639Z,81.22
2023-02-21T09:53:26.370Z,81.37
2023-02-21T09:55:58.929Z,81.39
2023-02-21T09:58:25.627Z,81.43
2023-02-21T10:00:52.364Z,81.52
2023-02-21T10:03:38.844Z,81.19
2023-02-21T10:06:15.727Z,81.12
2023-02-21T10:09:24.120Z,81.05
2023-02-21T10:12:25.240Z,81.08
2023-02-21T10:15:14.465Z,81.21
2023-02-21T10:18:05.476Z,80.88
2023-02-21T10:20:55.690Z,81.01
2023-02-21T10:23:29.632Z,80.96
2023-02-21T10:26:03.358Z,81.03
2023-02-21T10:28:29.837Z,81.02
2023-02-21T10:31:00.380Z,80.92
2023-02-21T10:33:27.192Z,80.99
2023-02-21T10:35:55.088Z,80.88
2023-02-21T10:38:26.014Z,80.81
2023-02-21T10:40:57.232Z,80.58
2023-02-21T10:43:41.705Z,80.66
2023-02-21T10:46:21.237Z,80.46
2023-02-21T10:48:52.438Z,80.44
2023-02-21T10:51:35.495Z,80.39
2023-02-21T10:54:22.806Z,80.24
2023-02-21T10:56:52.494Z,80.38
2023-02-21T10:59:23.545Z,80.34
2023-02-21T11:01:50.937Z,80.38
2023-02-21T11:04:20.428Z,80.27
2023-02-21T11:06:50.772Z,80.42
2023-02-21T11:09:39.537Z,80.48
2023-02-21T11:12:26.838Z,80.32
2023-02-21T11:14:53.354Z,80.50
2023-02-21T11:17:22.238Z,80.34
2023-02-21T11:20:07.974Z,80.27
2023-02-21T11:22:34.945Z,80.36
2023-02-21T11:25:22.847Z,80.14
2023-02-21T11:28:14.784Z,80.38
2023-02-21T11:30:51.865Z,80.27
2023-02-21T11:33:21.285Z,80.30
2023-02-21T11:35:50.437Z,80.35
2023-02-21T11:38:32.688Z,80.46
2023-02-21T11:41:00.562Z,80.50
2023-02-21T11:43:33.551Z,80.54
2023-02-21T11:46:12.586Z,80.55
2023-02-21T11:48:49.354Z,80.61
2023-02-21T11:51:41.874Z,80.52
2023-02-21T11:54:08.591Z,80.74
2023-02-21T11:56:58.139Z,80.73
2023-02-21T11:59:38.006Z,80.76
2023-02-21T12:02:07.402Z,80.84
2023-02-21T12:05:28.359Z,80.65
2023-02-21T12:08:25.873Z,80.90
2023-02-21T12:11:10.578Z,80.87
2023-02-21T12:13:58.596Z,80.87
2023-02-21T12:16:46.098Z,81.09
2023-02-21T12:19:21.440Z,81.06
2023-02-21T12:22:14.217Z,81.07
2023-02-21T12:24:55.901Z,81.10
2023-02-21T12:27:46.453Z,81.01
2023-02-21T12:30:40.776Z,81.17
2023-02-21T12:33:21.169Z,81.10
2023-02-21T12:36:20.235Z,82.01
2023-02-21T12:39:02.039Z,81.87
2023-02-21T12:41:48.396Z,82.01
2023-02-21T12:44:21.874Z,82.08
2023-02-21T12:46:55.693Z,81.96
2023-02-21T12:49:28.345Z,81.90
2023-02-21T12:52:00.559Z,81.96
2023-02-21T12:54:44.451Z,81.84
2023-02-21T12:57:14.819Z,81.84
2023-02-21T12:59:59.443Z,81.72
2023-02-21T13:02:57.108Z,81.82
2023-02-21T13:05:34.369Z,81.71
2023-02-21T13:08:15.545Z,81.73
2023-02-21T13:11:06.350Z,81.74
2023-02-21T13:13:33.976Z,81.75
2023-02-21T13:16:07.826Z,81.70
2023-02-21T13:18:39.301Z,81.56
2023-02-21T13:21:34.983Z,81.45
2023-02-21T13:24:08.966Z,81.49
2023-02-21T13:27:13.086Z,81.42
2023-02-21T13:29:42.432Z,81.50
2023-02-21T13:32:17.030Z,81.50
2023-02-21T13:34:48.433Z,81.46
2023-02-21T13:37:26.825Z,81.29
2023-02-21T13:40:06.517Z,81.38
2023-02-21T13:42:36.284Z,81.39
2023-02-21T13:45:13.083Z,81.23
2023-02-21T13:47:57.574Z,81.25
2023-02-21T13:50:46.401Z,81.14
2023-02-21T13:53:22.346Z,81.11
2023-02-21T13:56:09.035Z,81.32
2023-02-21T13:58:44.861Z,81.17
2023-02-21T14:01:40.748Z,81.26
2023-02-21T14:05:01.797Z,81.33
2023-02-21T14:07:50.121Z,81.33
2023-02-21T14:10:44.321Z,81.20
2023-02-21T14:13:21.733Z,81.15
2023-02-21T14:15:56.584Z,81.19
2023-02-21T14:18:30.501Z,81.39
2023-02-21T14:20:58.377Z,81.25
2023-02-21T14:23:36.948Z,81.10
2023-02-21T14:26:04.848Z,81.15
2023-02-21T14:28:51.225Z,80.98
2023-02-21T14:31:58.092Z,81.02
2023-02-21T14:34:39.307Z,81.15
2023-02-21T14:37:16.800Z,81.33
2023-02-21T14:39:47.428Z,81.07
2023-02-21T14:42:51.495Z,80.92
2023-02-21T14:45:36.294Z,80.98
2023-02-21T14:48:34.306Z,80.83
2023-02-21T14:51:38.376Z,80.89
2023-02-21T14:54:45.709Z,80.89
2023-02-21T14:57:24.029Z,80.90
2023-02-21T15:00:16.252Z,80.86
2023-02-21T15:02:52.757Z,80.82
2023-02-21T15:05:40.446Z,80.54
2023-02-21T15:08:16.131Z,80.55
2023-02-21T15:10:45.217Z,80.37
2023-02-21T15:13:20.682Z,80.34
2023-02-21T15:15:47.299Z,80.53
2023-02-21T15:18:37.052Z,80.01
2023-02-21T15:21:11.593Z,80.15
2023-02-21T15:23:40.114Z,80.05
2023-02-21T15:26:29.687Z,80.00
2023-02-21T15:29:13.772Z,80.05
2023-02-21T15:31:47.758Z,80.08
2023-02-21T15:34:31.983Z,80.19
2023-02-21T15:37:19.304Z,80.09
2023-02-21T15:39:54.548Z,79.88
2023-02-21T15:42:23.731Z,80.04
2023-02-21T15:44:58.786Z,80.04
2023-02-21T15:47:30.364Z,80.02
2023-02-21T15:50:13.731Z,79.85
2023-02-21T15:52:51.211Z,80.02
2023-02-21T15:55:21.207Z,80.11
2023-02-21T15:57:58.081Z,80.07
2023-02-21T16:00:28.259Z,80.03
2023-02-21T16:03:25.761Z,80.04
2023-02-21T16:05:52.912Z,80.06
2023-02-21T16:08:19.401Z,80.05
2023-02-21T16:10:45.946Z,80.18
2023-02-21T16:13:12.812Z,80.02
2023-02-21T16:15:40.758Z,80.17
2023-02-21T16:18:09.578Z,79.94
2023-02-21T16:20:38.705Z,79.97
2023-02-21T16:23:20.386Z,79.81
2023-02-21T16:25:55.896Z,79.79
2023-02-21T16:28:22.406Z,79.91
2023-02-21T16:30:49.271Z,80.06
2023-02-21T16:33:17.506Z,80.04
2023-02-21T16:35:44.187Z,79.72
2023-02-21T16:38:15.547Z,79.71
2023-02-21T16:40:42.120Z,79.74
2023-02-21T16:43:16.949Z,79.77
2023-02-21T16:45:43.509Z,80.05
2023-02-21T16:48:16.321Z,79.63
2023-02-21T16:50:43.947Z,79.58
2023-02-21T16:53:15.281Z,79.38
2023-02-21T16:55:42.629Z,79.40
2023-02-21T16:58:25.974Z,79.10
2023-02-21T17:00:55.098Z,79.56
2023-02-21T17:03:21.639Z,79.34
2023-02-21T17:05:49.960Z,79.41
2023-02-21T17:08:16.381Z,79.23
2023-02-21T17:10:42.896Z,79.50
2023-02-21T17:13:09.335Z,79.12
2023-02-21T17:15:35.877Z,79.44
2023-02-21T17:18:02.904Z,79.02
2023-02-21T17:20:29.800Z,79.30
2023-02-21T17:22:58.369Z,79.31
2023-02-21T17:25:25.670Z,79.30
2023-02-21T17:27:52.483Z,79.29
2023-02-21T17:30:21.097Z,79.19
2023-02-21T17:32:47.731Z,79.13
2023-02-21T17:35:15.751Z,79.15
2023-02-21T17:37:43.523Z,79.08
2023-02-21T17:40:11.378Z,79.22
2023-02-21T17:42:39.546Z,79.13
2023-02-21T17:45:06.827Z,79.05
2023-02-21T17:47:35.275Z,79.27
2023-02-21T17:50:03.717Z,79.15
2023-02-21T17:52:31.035Z,79.18
2023-02-21T17:54:57.766Z,79.19
2023-02-21T17:57:24.296Z,79.31
2023-02-21T17:59:50.726Z,79.27
2023-02-21T18:02:19.287Z,79.12
2023-02-21T18:04:48.652Z,79.10
2023-02-21T18:07:15.163Z,79.26
2023-02-21T18:09:41.705Z,79.11
2023-02-21T18:12:08.323Z,79.23
2023-02-21T18:14:35.000Z,79.24
2023-02-21T18:17:02.863Z,79.18
2023-02-21T18:19:31.026Z,79.25
2023-02-21T18:21:58.178Z,79.15
2023-02-21T18:24:26.718Z,79.20
2023-02-21T18:26:53.440Z,79.08
2023-02-21T18:29:21.731Z,79.23
2023-02-21T18:31:55.786Z,78.96
2023-02-21T18:34:23.329Z,79.22
2023-02-21T18:36:52.090Z,79.24
2023-02-21T18:39:21.512Z,79.27
2023-02-21T18:41:48.700Z,79.26
2023-02-21T18:44:15.336Z,79.31
2023-02-21T18:46:50.313Z,79.23
2023-02-21T18:49:17.175Z,79.25
2023-02-21T18:51:44.088Z,79.23
2023-02-21T18:54:10.570Z,79.16
2023-02-21T18:56:37.004Z,79.40
2023-02-21T18:59:03.651Z,79.20
2023-02-21T19:01:31.002Z,79.42
2023-02-21T19:03:57.659Z,79.33
2023-02-21T19:06:25.780Z,79.32
2023-02-21T19:08:54.201Z,79.46
2023-02-21T19:11:21.048Z,79.34
2023-02-21T19:13:49.807Z,79.32
2023-02-21T19:16:19.477Z,79.57
2023-02-21T19:18:47.217Z,79.46
2023-02-21T19:21:14.610Z,79.52
2023-02-21T19:23:42.574Z,79.39
2023-02-21T19:26:09.308Z,79.41
2023-02-21T19:28:39.072Z,79.60
2023-02-21T19:31:08.042Z,79.40
2023-02-21T19:33:35.244Z,79.45
2023-02-21T19:36:06.086Z,79.50
2023-02-21T19:38:32.661Z,79.54
2023-02-21T19:40:59.326Z,79.52
2023-02-21T19:43:26.193Z,79.50
2023-02-21T19:45:52.848Z,79.67
2023-02-21T19:48:21.377Z,79.50
2023-02-21T19:50:48.840Z,79.51
2023-02-21T19:53:15.528Z,79.59
2023-02-21T19:55:42.130Z,79.49
2023-02-21T19:58:09.258Z,79.41
2023-02-21T20:00:37.791Z,79.42
2023-02-21T20:03:04.408Z,79.66
2023-02-21T20:05:33.859Z,79.54
2023-02-21T20:08:10.279Z,79.23
2023-02-21T20:10:52.715Z,79.44
2023-02-21T20:13:40.200Z,79.56
2023-02-21T20:16:18.448Z,79.65
2023-02-21T20:18:45.424Z,79.65
2023-02-21T20:21:23.901Z,79.51
2023-02-21T20:23:51.654Z,79.65
2023-02-21T20:26:18.427Z,79.57
2023-02-21T20:28:47.769Z,79.61
2023-02-21T20:31:15.321Z,79.80
2023-02-21T20:33:42.396Z,79.61
2023-02-21T20:36:09.762Z,79.60
2023-02-21T20:38:48.567Z,79.58
2023-02-21T20:41:38.766Z,79.55
2023-02-21T20:44:05.588Z,79.65
2023-02-21T20:46:34.942Z,79.67
2023-02-21T20:49:03.124Z,79.59
2023-02-21T20:51:38.870Z,79.69
2023-02-21T20:54:06.123Z,79.52
2023-02-21T20:56:39.498Z,79.57
2023-02-21T20:59:15.687Z,79.65
2023-02-21T21:01:48.331Z,79.48
2023-02-21T21:04:21.732Z,79.54
2023-02-21T21:06:48.690Z,79.54
2023-02-21T21:09:17.747Z,79.51
2023-02-21T21:11:45.144Z,79.42
2023-02-21T21:14:13.393Z,79.63
2023-02-21T21:16:41.973Z,79.59
2023-02-21T21:19:08.858Z,79.50
2023-02-21T21:21:37.742Z,79.61
2023-02-21T21:24:07.063Z,79.65
2023-02-21T21:26:34.024Z,79.59
2023-02-21T21:29:01.372Z,79.67
2023-02-21T21:31:27.934Z,79.65
2023-02-21T21:33:56.295Z,79.70
2023-02-21T21:36:23.361Z,79.67
2023-02-21T21:38:49.797Z,79.54
2023-02-21T21:41:16.957Z,79.53
2023-02-21T21:43:45.441Z,79.66
2023-02-21T21:46:13.541Z,79.59
2023-02-21T21:48:44.614Z,79.60
2023-02-21T21:51:13.935Z,79.46
2023-02-21T21:53:41.462Z,79.52
2023-02-21T21:56:08.446Z,79.94
2023-02-21T21:58:35.946Z,79.70
2023-02-21T22:01:05.388Z,79.61
2023-02-21T22:03:32.852Z,79.56
2023-02-21T22:06:00.750Z,79.73
2023-02-21T22:08:28.861Z,79.68
2023-02-21T22:10:56.572Z,79.55
2023-02-21T22:13:28.889Z,79.74
2023-02-21T22:15:56.205Z,79.65
2023-02-21T22:18:24.473Z,79.54
2023-02-21T22:20:51.580Z,79.69
2023-02-21T22:23:24.437Z,79.68
2023-02-21T22:25:52.217Z,79.66
2023-02-21T22:28:19.495Z,79.67
2023-02-21T22:30:46.431Z,79.66
2023-02-21T22:33:19.725Z,79.54
2023-02-21T22:35:50.134Z,79.61
2023-02-21T22:38:44.069Z,79.69
2023-02-21T22:41:22.444Z,79.69
2023-02-21T22:43:50.633Z,79.79
2023-02-21T22:46:23.132Z,79.66
2023-02-21T22:48:55.424Z,79.78
2023-02-21T22:51:41.051Z,79.63
2023-02-21T22:54:43.310Z,79.73
2023-02-21T23:04:31.036Z,79.86
2023-02-21T23:06:59.547Z,79.96
2023-02-21T23:09:35.954Z,79.84
2023-02-21T23:12:03.955Z,80.04
2023-02-21T23:14:37.339Z,79.80
2023-02-21T23:17:18.593Z,79.73
2023-02-21T23:19:53.373Z,79.87
2023-02-21T23:22:33.352Z,79.88
2023-02-21T23:25:27.023Z,79.79
2023-02-21T23:28:19.351Z,79.97
2023-02-21T23:30:56.219Z,80.07
2023-02-21T23:36:41.000Z,79.96
2023-02-21T23:39:17.282Z,79.92
2023-02-21T23:41:51.304Z,79.88
2023-02-21T23:48:31.262Z,79.87
2023-02-21T23:58:32.704Z,79.93
